sensor_id;sensor_type;location;lat;lon;timestamp;pressure;altitude;pressure_sealevel;temperature;humidity
48553;BME280;34335;51.566;6.994;2023-04-06T00:00:08;101249.94;;;2.52;72.49
48553;BME280;34335;51.566;6.994;2023-04-06T00:02:34;101244.59;;;2.47;72.63
48553;BME280;34335;51.566;6.994;2023-04-06T00:04:59;101245.31;;;2.43;73.30
48553;BME280;34335;51.566;6.994;2023-04-06T00:07:25;101238.28;;;2.39;73.47
48553;BME280;34335;51.566;6.994;2023-04-06T00:09:51;101236.34;;;2.33;73.95
48553;BME280;34335;51.566;6.994;2023-04-06T00:12:16;101241.28;;;2.29;74.25
48553;BME280;34335;51.566;6.994;2023-04-06T00:14:42;101241.19;;;2.26;74.44
48553;BME280;34335;51.566;6.994;2023-04-06T00:17:07;101240.03;;;2.19;74.45
48553;BME280;34335;51.566;6.994;2023-04-06T00:19:33;101239.03;;;2.15;74.53
48553;BME280;34335;51.566;6.994;2023-04-06T00:21:58;101237.00;;;2.08;74.94
48553;BME280;34335;51.566;6.994;2023-04-06T00:24:23;101233.44;;;2.05;75.80
48553;BME280;34335;51.566;6.994;2023-04-06T00:26:49;101229.88;;;2.01;75.46
48553;BME280;34335;51.566;6.994;2023-04-06T00:29:14;101226.31;;;1.97;76.59
48553;BME280;34335;51.566;6.994;2023-04-06T00:31:40;101222.72;;;1.94;76.64
48553;BME280;34335;51.566;6.994;2023-04-06T00:34:05;101223.41;;;1.90;76.56
48553;BME280;34335;51.566;6.994;2023-04-06T00:36:31;101217.22;;;1.84;77.02
48553;BME280;34335;51.566;6.994;2023-04-06T00:38:56;101220.44;;;1.80;76.95
48553;BME280;34335;51.566;6.994;2023-04-06T00:41:22;101217.75;;;1.77;77.60
48553;BME280;34335;51.566;6.994;2023-04-06T00:43:47;101211.69;;;1.75;79.52
48553;BME280;34335;51.566;6.994;2023-04-06T00:46:12;101205.56;;;1.71;79.35
48553;BME280;34335;51.566;6.994;2023-04-06T00:48:38;101207.91;;;1.67;78.83
48553;BME280;34335;51.566;6.994;2023-04-06T00:51:04;101211.13;;;1.63;79.56
48553;BME280;34335;51.566;6.994;2023-04-06T00:53:29;101198.88;;;1.55;78.84
48553;BME280;34335;51.566;6.994;2023-04-06T00:55:54;101203.84;;;1.52;79.43
48553;BME280;34335;51.566;6.994;2023-04-06T00:58:20;101200.13;;;1.46;79.66
48553;BME280;34335;51.566;6.994;2023-04-06T01:00:45;101201.78;;;1.44;79.97
48553;BME280;34335;51.566;6.994;2023-04-06T01:03:11;101190.50;;;1.40;80.82
48553;BME280;34335;51.566;6.994;2023-04-06T01:05:36;101188.88;;;1.42;81.69
48553;BME280;34335;51.566;6.994;2023-04-06T01:08:08;101183.69;;;1.40;80.45
48553;BME280;34335;51.566;6.994;2023-04-06T01:10:33;101178.56;;;1.40;83.17
48553;BME280;34335;51.566;6.994;2023-04-06T01:12:59;101181.47;;;1.29;82.45
48553;BME280;34335;51.566;6.994;2023-04-06T01:15:25;101178.50;;;1.19;81.26
48553;BME280;34335;51.566;6.994;2023-04-06T01:17:51;101175.66;;;1.13;81.60
48553;BME280;34335;51.566;6.994;2023-04-06T01:20:17;101180.66;;;1.10;81.82
48553;BME280;34335;51.566;6.994;2023-04-06T01:22:42;101171.00;;;1.04;82.37
48553;BME280;34335;51.566;6.994;2023-04-06T01:25:08;101166.59;;;1.02;82.57
48553;BME280;34335;51.566;6.994;2023-04-06T01:27:34;101172.69;;;1.23;98.70
48553;BME280;34335;51.566;6.994;2023-04-06T01:29:59;101168.50;;;1.06;99.66
48553;BME280;34335;51.566;6.994;2023-04-06T01:32:25;101170.91;;;1.03;93.78
48553;BME280;34335;51.566;6.994;2023-04-06T01:34:50;101166.06;;;0.89;88.44
48553;BME280;34335;51.566;6.994;2023-04-06T01:37:16;101162.19;;;0.80;87.04
48553;BME280;34335;51.566;6.994;2023-04-06T01:39:42;101158.22;;;0.86;87.85
48553;BME280;34335;51.566;6.994;2023-04-06T01:42:08;101158.22;;;0.86;92.17
48553;BME280;34335;51.566;6.994;2023-04-06T01:44:33;101155.88;;;0.73;89.17
48553;BME280;34335;51.566;6.994;2023-04-06T01:46:58;101143.91;;;0.72;89.20
48553;BME280;34335;51.566;6.994;2023-04-06T01:49:24;101150.13;;;0.77;90.96
48553;BME280;34335;51.566;6.994;2023-04-06T01:51:49;101155.09;;;0.74;95.47
48553;BME280;34335;51.566;6.994;2023-04-06T01:54:14;101152.09;;;0.83;100.00
48553;BME280;34335;51.566;6.994;2023-04-06T01:56:40;101147.06;;;0.66;91.77
48553;BME280;34335;51.566;6.994;2023-04-06T01:59:06;101149.25;;;0.58;100.00
48553;BME280;34335;51.566;6.994;2023-04-06T02:01:31;101156.34;;;0.46;92.57
48553;BME280;34335;51.566;6.994;2023-04-06T02:03:56;101153.44;;;0.38;91.56
48553;BME280;34335;51.566;6.994;2023-04-06T02:06:21;101149.94;;;0.36;91.48
48553;BME280;34335;51.566;6.994;2023-04-06T02:08:47;101148.91;;;0.33;92.00
48553;BME280;34335;51.566;6.994;2023-04-06T02:11:12;101144.72;;;0.35;93.63
48553;BME280;34335;51.566;6.994;2023-04-06T02:13:37;101146.03;;;0.26;92.07
48553;BME280;34335;51.566;6.994;2023-04-06T02:16:03;101145.75;;;0.20;91.57
48553;BME280;34335;51.566;6.994;2023-04-06T02:18:30;101148.16;;;0.17;91.49
48553;BME280;34335;51.566;6.994;2023-04-06T02:20:56;101142.91;;;0.14;92.19
48553;BME280;34335;51.566;6.994;2023-04-06T02:23:21;101140.81;;;0.23;95.94
48553;BME280;34335;51.566;6.994;2023-04-06T02:25:46;101138.38;;;0.26;98.38
48553;BME280;34335;51.566;6.994;2023-04-06T02:28:12;101138.50;;;0.11;93.98
48553;BME280;34335;51.566;6.994;2023-04-06T02:30:37;101134.81;;;0.05;94.78
48553;BME280;34335;51.566;6.994;2023-04-06T02:33:02;101142.25;;;0.00;94.20
48553;BME280;34335;51.566;6.994;2023-04-06T02:35:28;101142.38;;;0.03;94.57
48553;BME280;34335;51.566;6.994;2023-04-06T02:37:54;101143.91;;;-0.01;94.25
48553;BME280;34335;51.566;6.994;2023-04-06T02:40:19;101130.03;;;-0.06;94.16
48553;BME280;34335;51.566;6.994;2023-04-06T02:42:44;101132.44;;;-0.09;94.29
48553;BME280;34335;51.566;6.994;2023-04-06T02:45:10;101141.75;;;-0.09;95.28
48553;BME280;34335;51.566;6.994;2023-04-06T02:47:35;101132.94;;;-0.16;94.69
48553;BME280;34335;51.566;6.994;2023-04-06T02:50:00;101145.84;;;-0.13;95.43
48553;BME280;34335;51.566;6.994;2023-04-06T02:52:26;101132.16;;;0.03;100.00
48553;BME280;34335;51.566;6.994;2023-04-06T02:54:51;101127.72;;;0.35;100.00
48553;BME280;34335;51.566;6.994;2023-04-06T02:57:17;101137.19;;;0.02;100.00
48553;BME280;34335;51.566;6.994;2023-04-06T02:59:42;101129.53;;;0.02;100.00
48553;BME280;34335;51.566;6.994;2023-04-06T03:02:07;101128.84;;;-0.12;100.00
48553;BME280;34335;51.566;6.994;2023-04-06T03:04:33;101128.13;;;-0.10;100.00
48553;BME280;34335;51.566;6.994;2023-04-06T03:06:58;101121.47;;;-0.24;100.00
48553;BME280;34335;51.566;6.994;2023-04-06T03:09:23;101118.50;;;0.03;100.00
48553;BME280;34335;51.566;6.994;2023-04-06T03:11:48;101119.50;;;0.06;100.00
48553;BME280;34335;51.566;6.994;2023-04-06T03:14:14;101130.38;;;-0.16;100.00
48553;BME280;34335;51.566;6.994;2023-04-06T03:16:39;101124.66;;;-0.28;100.00
48553;BME280;34335;51.566;6.994;2023-04-06T03:19:05;101116.34;;;-0.41;100.00
48553;BME280;34335;51.566;6.994;2023-04-06T03:21:30;101119.88;;;-0.39;100.00
48553;BME280;34335;51.566;6.994;2023-04-06T03:23:55;101126.06;;;-0.34;100.00
48553;BME280;34335;51.566;6.994;2023-04-06T03:26:21;101122.94;;;-0.46;100.00
48553;BME280;34335;51.566;6.994;2023-04-06T03:28:47;101121.25;;;-0.45;100.00
48553;BME280;34335;51.566;6.994;2023-04-06T03:31:12;101116.25;;;-0.26;100.00
48553;BME280;34335;51.566;6.994;2023-04-06T03:33:37;101122.03;;;-0.47;100.00
48553;BME280;34335;51.566;6.994;2023-04-06T03:36:03;101116.56;;;-0.54;100.00
48553;BME280;34335;51.566;6.994;2023-04-06T03:38:29;101121.66;;;-0.54;100.00
48553;BME280;34335;51.566;6.994;2023-04-06T03:40:54;101123.88;;;-0.60;100.00
48553;BME280;34335;51.566;6.994;2023-04-06T03:43:19;101122.56;;;-0.70;100.00
48553;BME280;34335;51.566;6.994;2023-04-06T03:45:45;101125.00;;;-0.72;100.00
48553;BME280;34335;51.566;6.994;2023-04-06T03:48:10;101127.16;;;-0.63;100.00
48553;BME280;34335;51.566;6.994;2023-04-06T03:50:35;101117.47;;;-0.52;100.00
48553;BME280;34335;51.566;6.994;2023-04-06T03:53:01;101120.88;;;-0.70;100.00
48553;BME280;34335;51.566;6.994;2023-04-06T03:55:29;101125.34;;;-0.66;100.00
48553;BME280;34335;51.566;6.994;2023-04-06T03:57:55;101127.31;;;-0.76;100.00
48553;BME280;34335;51.566;6.994;2023-04-06T04:00:20;101124.47;;;-0.83;100.00
48553;BME280;34335;51.566;6.994;2023-04-06T04:02:45;101127.09;;;-0.81;100.00
48553;BME280;34335;51.566;6.994;2023-04-06T04:05:11;101116.25;;;-0.77;100.00
48553;BME280;34335;51.566;6.994;2023-04-06T04:07:36;101123.50;;;-0.85;100.00
48553;BME280;34335;51.566;6.994;2023-04-06T04:10:01;101119.28;;;-0.84;100.00
48553;BME280;34335;51.566;6.994;2023-04-06T04:12:27;101127.34;;;-0.93;100.00
48553;BME280;34335;51.566;6.994;2023-04-06T04:14:52;101127.09;;;-0.98;100.00
48553;BME280;34335;51.566;6.994;2023-04-06T04:17:17;101124.47;;;-0.99;100.00
48553;BME280;34335;51.566;6.994;2023-04-06T04:19:42;101128.44;;;-1.04;100.00
48553;BME280;34335;51.566;6.994;2023-04-06T04:22:07;101124.06;;;-1.07;100.00
48553;BME280;34335;51.566;6.994;2023-04-06T04:24:33;101126.13;;;-1.00;100.00
48553;BME280;34335;51.566;6.994;2023-04-06T04:26:59;101119.28;;;-0.84;100.00
48553;BME280;34335;51.566;6.994;2023-04-06T04:29:25;101124.38;;;-1.01;100.00
48553;BME280;34335;51.566;6.994;2023-04-06T04:31:51;101118.72;;;-0.62;100.00
48553;BME280;34335;51.566;6.994;2023-04-06T04:34:17;101113.63;;;-0.79;100.00
48553;BME280;34335;51.566;6.994;2023-04-06T04:36:45;101107.69;;;-0.61;100.00
48553;BME280;34335;51.566;6.994;2023-04-06T04:39:10;101110.66;;;-0.86;100.00
48553;BME280;34335;51.566;6.994;2023-04-06T04:41:36;101118.00;;;-0.76;100.00
48553;BME280;34335;51.566;6.994;2023-04-06T04:44:01;101117.47;;;-0.52;100.00
48553;BME280;34335;51.566;6.994;2023-04-06T04:46:27;101114.88;;;-0.70;100.00
48553;BME280;34335;51.566;6.994;2023-04-06T04:48:52;101114.47;;;-0.78;100.00
48553;BME280;34335;51.566;6.994;2023-04-06T04:51:17;101115.13;;;-0.82;100.00
48553;BME280;34335;51.566;6.994;2023-04-06T04:53:44;101114.97;;;-0.85;100.00
48553;BME280;34335;51.566;6.994;2023-04-06T04:56:10;101110.84;;;-0.83;100.00
48553;BME280;34335;51.566;6.994;2023-04-06T04:58:35;101107.16;;;-0.88;100.00
48553;BME280;34335;51.566;6.994;2023-04-06T05:01:00;101111.75;;;-0.81;100.00
48553;BME280;34335;51.566;6.994;2023-04-06T05:03:26;101103.72;;;-0.89;100.00
48553;BME280;34335;51.566;6.994;2023-04-06T05:05:52;101108.25;;;-0.67;100.00
48553;BME280;34335;51.566;6.994;2023-04-06T05:08:17;101109.31;;;-0.80;100.00
48553;BME280;34335;51.566;6.994;2023-04-06T05:10:42;101111.13;;;-0.77;100.00
48553;BME280;34335;51.566;6.994;2023-04-06T05:13:08;101117.03;;;-0.78;100.00
48553;BME280;34335;51.566;6.994;2023-04-06T05:15:33;101115.28;;;-0.96;100.00
48553;BME280;34335;51.566;6.994;2023-04-06T05:18:04;101116.72;;;-1.01;100.00
48553;BME280;34335;51.566;6.994;2023-04-06T05:20:29;101111.78;;;-0.98;100.00
48553;BME280;34335;51.566;6.994;2023-04-06T05:22:54;101107.69;;;-0.94;100.00
48553;BME280;34335;51.566;6.994;2023-04-06T05:25:20;101111.75;;;-0.81;100.00
48553;BME280;34335;51.566;6.994;2023-04-06T05:27:45;101111.31;;;-0.74;100.00
48553;BME280;34335;51.566;6.994;2023-04-06T05:30:10;101108.66;;;-0.75;100.00
48553;BME280;34335;51.566;6.994;2023-04-06T05:32:36;101107.94;;;-0.89;100.00
48553;BME280;34335;51.566;6.994;2023-04-06T05:35:01;101113.69;;;-0.93;100.00
48553;BME280;34335;51.566;6.994;2023-04-06T05:37:27;101109.44;;;-0.60;100.00
48553;BME280;34335;51.566;6.994;2023-04-06T05:39:52;101114.19;;;-0.33;100.00
48553;BME280;34335;51.566;6.994;2023-04-06T05:42:17;101106.63;;;-0.48;100.00
48553;BME280;34335;51.566;6.994;2023-04-06T05:44:43;101108.16;;;-0.52;100.00
48553;BME280;34335;51.566;6.994;2023-04-06T05:47:08;101095.28;;;-0.37;100.00
48553;BME280;34335;51.566;6.994;2023-04-06T05:49:33;101103.06;;;-0.34;100.00
48553;BME280;34335;51.566;6.994;2023-04-06T05:51:59;101109.34;;;-0.45;100.00
48553;BME280;34335;51.566;6.994;2023-04-06T05:54:25;101108.38;;;0.06;100.00
48553;BME280;34335;51.566;6.994;2023-04-06T05:56:50;101103.88;;;0.00;100.00
48553;BME280;34335;51.566;6.994;2023-04-06T05:59:15;101110.88;;;0.04;100.00
48553;BME280;34335;51.566;6.994;2023-04-06T06:01:41;101108.25;;;0.03;100.00
48553;BME280;34335;51.566;6.994;2023-04-06T06:04:06;101111.69;;;-0.15;100.00
48553;BME280;34335;51.566;6.994;2023-04-06T06:06:31;101105.19;;;0.10;100.00
48553;BME280;34335;51.566;6.994;2023-04-06T06:08:57;101098.91;;;0.21;100.00
48553;BME280;34335;51.566;6.994;2023-04-06T06:11:25;101096.84;;;0.32;100.00
48553;BME280;34335;51.566;6.994;2023-04-06T06:13:51;101095.84;;;0.28;100.00
48553;BME280;34335;51.566;6.994;2023-04-06T06:16:17;101100.84;;;0.63;100.00
48553;BME280;34335;51.566;6.994;2023-04-06T06:18:43;101102.22;;;0.56;100.00
48553;BME280;34335;51.566;6.994;2023-04-06T06:21:08;101099.28;;;0.67;100.00
48553;BME280;34335;51.566;6.994;2023-04-06T06:23:34;101105.09;;;0.82;100.00
48553;BME280;34335;51.566;6.994;2023-04-06T06:25:59;101102.84;;;0.88;100.00
48553;BME280;34335;51.566;6.994;2023-04-06T06:28:26;101104.03;;;0.97;100.00
48553;BME280;34335;51.566;6.994;2023-04-06T06:30:51;101104.84;;;0.96;100.00
48553;BME280;34335;51.566;6.994;2023-04-06T06:33:16;101101.50;;;0.59;100.00
48553;BME280;34335;51.566;6.994;2023-04-06T06:35:42;101100.47;;;1.13;100.00
48553;BME280;34335;51.566;6.994;2023-04-06T06:38:07;101101.22;;;0.90;100.00
48553;BME280;34335;51.566;6.994;2023-04-06T06:40:33;101105.09;;;0.63;100.00
48553;BME280;34335;51.566;6.994;2023-04-06T06:42:59;101108.78;;;1.07;100.00
48553;BME280;34335;51.566;6.994;2023-04-06T06:45:24;101113.63;;;1.01;100.00
48553;BME280;34335;51.566;6.994;2023-04-06T06:47:50;101106.31;;;1.49;100.00
48553;BME280;34335;51.566;6.994;2023-04-06T06:50:16;101096.56;;;1.83;100.00
48553;BME280;34335;51.566;6.994;2023-04-06T06:52:41;101102.53;;;1.41;100.00
48553;BME280;34335;51.566;6.994;2023-04-06T06:55:08;101096.81;;;2.10;100.00
48553;BME280;34335;51.566;6.994;2023-04-06T06:57:33;101093.38;;;2.54;100.00
48553;BME280;34335;51.566;6.994;2023-04-06T06:59:58;101098.81;;;2.86;100.00
48553;BME280;34335;51.566;6.994;2023-04-06T07:02:25;101099.66;;;2.39;100.00
48553;BME280;34335;51.566;6.994;2023-04-06T07:04:50;101097.22;;;2.42;100.00
48553;BME280;34335;51.566;6.994;2023-04-06T07:07:15;101097.50;;;2.73;100.00
48553;BME280;34335;51.566;6.994;2023-04-06T07:09:41;101089.16;;;3.51;100.00
48553;BME280;34335;51.566;6.994;2023-04-06T07:12:06;101092.00;;;3.59;100.00
48553;BME280;34335;51.566;6.994;2023-04-06T07:14:31;101086.13;;;3.89;100.00
48553;BME280;34335;51.566;6.994;2023-04-06T07:16:57;101084.44;;;3.91;100.00
48553;BME280;34335;51.566;6.994;2023-04-06T07:19:22;101086.97;;;3.38;100.00
48553;BME280;34335;51.566;6.994;2023-04-06T07:21:47;101090.03;;;3.03;100.00
48553;BME280;34335;51.566;6.994;2023-04-06T07:24:14;101082.16;;;2.99;100.00
48553;BME280;34335;51.566;6.994;2023-04-06T07:26:40;101083.72;;;3.95;100.00
48553;BME280;34335;51.566;6.994;2023-04-06T07:29:05;101091.31;;;3.65;100.00
48553;BME280;34335;51.566;6.994;2023-04-06T07:31:30;101086.78;;;4.11;100.00
48553;BME280;34335;51.566;6.994;2023-04-06T07:33:56;101093.91;;;4.47;100.00
48553;BME280;34335;51.566;6.994;2023-04-06T07:36:21;101088.84;;;4.50;99.71
48553;BME280;34335;51.566;6.994;2023-04-06T07:38:46;101086.19;;;5.08;93.64
48553;BME280;34335;51.566;6.994;2023-04-06T07:41:12;101088.34;;;4.92;100.00
48553;BME280;34335;51.566;6.994;2023-04-06T07:43:37;101087.34;;;5.51;91.09
48553;BME280;34335;51.566;6.994;2023-04-06T07:46:03;101082.00;;;5.78;86.60
48553;BME280;34335;51.566;6.994;2023-04-06T07:48:28;101081.88;;;5.74;89.45
48553;BME280;34335;51.566;6.994;2023-04-06T07:51:04;101066.72;;;5.51;97.87
48553;BME280;34335;51.566;6.994;2023-04-06T07:53:29;101066.69;;;6.21;85.23
48553;BME280;34335;51.566;6.994;2023-04-06T07:55:55;101068.38;;;5.84;90.52
48553;BME280;34335;51.566;6.994;2023-04-06T07:58:21;101070.06;;;6.17;87.58
48553;BME280;34335;51.566;6.994;2023-04-06T08:00:46;101075.97;;;6.51;85.73
48553;BME280;34335;51.566;6.994;2023-04-06T08:03:11;101072.53;;;6.94;82.49
48553;BME280;34335;51.566;6.994;2023-04-06T08:05:37;101071.16;;;7.11;73.63
48553;BME280;34335;51.566;6.994;2023-04-06T08:08:03;101068.06;;;7.32;75.43
48553;BME280;34335;51.566;6.994;2023-04-06T08:10:28;101066.63;;;7.47;76.81
48553;BME280;34335;51.566;6.994;2023-04-06T08:12:54;101070.28;;;7.60;75.30
48553;BME280;34335;51.566;6.994;2023-04-06T08:15:19;101061.38;;;7.44;87.40
48553;BME280;34335;51.566;6.994;2023-04-06T08:17:45;101059.31;;;7.73;76.12
48553;BME280;34335;51.566;6.994;2023-04-06T08:20:10;101059.13;;;8.18;82.25
48553;BME280;34335;51.566;6.994;2023-04-06T08:22:35;101060.03;;;8.23;79.09
48553;BME280;34335;51.566;6.994;2023-04-06T08:25:01;101064.03;;;7.99;79.03
48553;BME280;34335;51.566;6.994;2023-04-06T08:27:26;101066.81;;;8.11;80.09
48553;BME280;34335;51.566;6.994;2023-04-06T08:29:51;101062.69;;;8.26;81.50
48553;BME280;34335;51.566;6.994;2023-04-06T08:32:17;101059.81;;;8.07;92.90
48553;BME280;34335;51.566;6.994;2023-04-06T08:34:42;101061.41;;;8.56;73.45
48553;BME280;34335;51.566;6.994;2023-04-06T08:37:07;101058.84;;;8.59;76.79
48553;BME280;34335;51.566;6.994;2023-04-06T08:39:33;101054.81;;;8.83;67.44
48553;BME280;34335;51.566;6.994;2023-04-06T08:41:59;101054.34;;;9.19;69.18
48553;BME280;34335;51.566;6.994;2023-04-06T08:44:28;101051.84;;;9.27;66.57
48553;BME280;34335;51.566;6.994;2023-04-06T08:46:54;101054.50;;;9.33;66.32
48553;BME280;34335;51.566;6.994;2023-04-06T08:49:20;101050.38;;;9.56;66.38
48553;BME280;34335;51.566;6.994;2023-04-06T08:51:45;101049.50;;;9.58;63.71
48553;BME280;34335;51.566;6.994;2023-04-06T08:54:12;101053.78;;;9.48;70.34
48553;BME280;34335;51.566;6.994;2023-04-06T08:56:38;101051.44;;;9.81;67.16
48553;BME280;34335;51.566;6.994;2023-04-06T08:59:04;101045.41;;;9.83;80.48
48553;BME280;34335;51.566;6.994;2023-04-06T09:01:30;101045.41;;;9.83;84.52
48553;BME280;34335;51.566;6.994;2023-04-06T09:03:58;101039.38;;;9.88;64.52
48553;BME280;34335;51.566;6.994;2023-04-06T09:06:26;101045.53;;;10.02;69.50
48553;BME280;34335;51.566;6.994;2023-04-06T09:08:52;101046.41;;;10.03;66.18
48553;BME280;34335;51.566;6.994;2023-04-06T09:11:17;101043.13;;;10.32;62.09
48553;BME280;34335;51.566;6.994;2023-04-06T09:13:50;101048.41;;;10.42;66.70
48553;BME280;34335;51.566;6.994;2023-04-06T09:16:17;101046.72;;;10.52;63.00
48553;BME280;34335;51.566;6.994;2023-04-06T09:18:42;101038.97;;;10.69;62.27
48553;BME280;34335;51.566;6.994;2023-04-06T09:21:08;101040.00;;;11.10;55.96
48553;BME280;34335;51.566;6.994;2023-04-06T09:23:34;101045.19;;;11.07;54.73
48553;BME280;34335;51.566;6.994;2023-04-06T09:26:18;101039.13;;;11.22;61.46
48553;BME280;34335;51.566;6.994;2023-04-06T09:28:48;101038.28;;;11.49;58.05
48553;BME280;34335;51.566;6.994;2023-04-06T09:31:15;101040.03;;;11.63;57.81
48553;BME280;34335;51.566;6.994;2023-04-06T09:33:45;101043.50;;;11.96;56.92
48553;BME280;34335;51.566;6.994;2023-04-06T09:36:11;101031.34;;;11.92;57.60
48553;BME280;34335;51.566;6.994;2023-04-06T09:38:38;101026.09;;;12.07;59.25
48553;BME280;34335;51.566;6.994;2023-04-06T09:41:04;101033.84;;;12.43;53.54
48553;BME280;34335;51.566;6.994;2023-04-06T09:43:29;101031.31;;;12.26;50.46
48553;BME280;34335;51.566;6.994;2023-04-06T09:45:55;101032.09;;;12.45;51.17
48553;BME280;34335;51.566;6.994;2023-04-06T09:48:22;101026.06;;;12.35;52.44
48553;BME280;34335;51.566;6.994;2023-04-06T09:50:50;101020.81;;;12.41;50.82
48553;BME280;34335;51.566;6.994;2023-04-06T09:53:19;101026.88;;;12.48;51.75
48553;BME280;34335;51.566;6.994;2023-04-06T09:55:47;101016.34;;;12.70;59.96
48553;BME280;34335;51.566;6.994;2023-04-06T09:58:19;101018.75;;;13.12;50.10
48553;BME280;34335;51.566;6.994;2023-04-06T10:00:59;101022.19;;;13.14;53.16
48553;BME280;34335;51.566;6.994;2023-04-06T10:03:56;101012.41;;;13.48;53.09
48553;BME280;34335;51.566;6.994;2023-04-06T10:06:27;101003.78;;;13.34;53.76
48553;BME280;34335;51.566;6.994;2023-04-06T10:08:54;101012.72;;;13.00;48.22
48553;BME280;34335;51.566;6.994;2023-04-06T10:11:22;101015.66;;;12.26;47.08
48553;BME280;34335;51.566;6.994;2023-04-06T10:13:47;101015.56;;;12.54;47.97
48553;BME280;34335;51.566;6.994;2023-04-06T10:16:14;101020.81;;;12.44;48.59
48553;BME280;34335;51.566;6.994;2023-04-06T10:18:44;101015.53;;;12.60;50.18
48553;BME280;34335;51.566;6.994;2023-04-06T10:21:16;101020.00;;;12.25;50.69
48553;BME280;34335;51.566;6.994;2023-04-06T10:23:54;101003.75;;;13.40;58.11
48553;BME280;34335;51.566;6.994;2023-04-06T10:26:22;101009.59;;;13.71;54.21
48553;BME280;34335;51.566;6.994;2023-04-06T10:28:49;101005.22;;;13.75;53.04
48553;BME280;34335;51.566;6.994;2023-04-06T10:31:15;100997.88;;;14.10;56.81
48553;BME280;34335;51.566;6.994;2023-04-06T10:33:40;100998.69;;;14.18;57.49
48553;BME280;34335;51.566;6.994;2023-04-06T10:36:13;101001.84;;;14.45;50.70
48553;BME280;34335;51.566;6.994;2023-04-06T10:38:39;101010.66;;;14.38;50.59
48553;BME280;34335;51.566;6.994;2023-04-06T10:41:09;101002.69;;;14.45;56.64
48553;BME280;34335;51.566;6.994;2023-04-06T10:43:37;101004.16;;;13.93;45.76
48553;BME280;34335;51.566;6.994;2023-04-06T10:46:04;101001.22;;;14.24;52.37
48553;BME280;34335;51.566;6.994;2023-04-06T10:48:43;101008.72;;;14.52;51.62
48553;BME280;34335;51.566;6.994;2023-04-06T10:51:12;101002.66;;;14.52;50.41
48553;BME280;34335;51.566;6.994;2023-04-06T10:53:37;100995.53;;;13.82;45.61
48553;BME280;34335;51.566;6.994;2023-04-06T10:56:03;100992.16;;;13.75;45.69
48553;BME280;34335;51.566;6.994;2023-04-06T10:58:29;100998.28;;;13.68;46.38
48553;BME280;34335;51.566;6.994;2023-04-06T11:00:55;100990.66;;;14.32;45.83
48553;BME280;34335;51.566;6.994;2023-04-06T11:03:21;100981.59;;;15.23;54.03
48553;BME280;34335;51.566;6.994;2023-04-06T11:05:50;100979.63;;;15.35;50.59
48553;BME280;34335;51.566;6.994;2023-04-06T11:08:30;100974.53;;;15.25;43.73
48553;BME280;34335;51.566;6.994;2023-04-06T11:11:25;100990.31;;;14.60;47.07
48553;BME280;34335;51.566;6.994;2023-04-06T11:13:58;100988.34;;;14.79;45.56
48553;BME280;34335;51.566;6.994;2023-04-06T11:16:29;100990.72;;;14.26;50.83
48553;BME280;34335;51.566;6.994;2023-04-06T11:19:02;100979.41;;;14.94;50.53
48553;BME280;34335;51.566;6.994;2023-04-06T11:24:11;100984.66;;;13.30;50.44
48553;BME280;34335;51.566;6.994;2023-04-06T11:29:30;100974.97;;;14.98;51.21
48553;BME280;34335;51.566;6.994;2023-04-06T11:32:01;100972.19;;;15.10;49.86
48553;BME280;34335;51.566;6.994;2023-04-06T11:34:28;100976.69;;;15.55;53.38
48553;BME280;34335;51.566;6.994;2023-04-06T11:36:56;100981.13;;;14.95;47.55
48553;BME280;34335;51.566;6.994;2023-04-06T11:39:23;100970.97;;;15.31;48.70
48553;BME280;34335;51.566;6.994;2023-04-06T11:41:59;100973.47;;;14.81;49.24
48553;BME280;34335;51.566;6.994;2023-04-06T11:44:29;100969.38;;;14.58;50.56
48553;BME280;34335;51.566;6.994;2023-04-06T11:46:57;100965.03;;;15.21;48.09
48553;BME280;34335;51.566;6.994;2023-04-06T11:49:26;100971.31;;;15.08;46.02
48553;BME280;34335;51.566;6.994;2023-04-06T11:51:52;100970.56;;;13.51;45.14
48553;BME280;34335;51.566;6.994;2023-04-06T11:54:17;100972.31;;;13.52;48.15
48553;BME280;34335;51.566;6.994;2023-04-06T11:56:46;100961.53;;;14.58;50.98
48553;BME280;34335;51.566;6.994;2023-04-06T11:59:11;100956.53;;;14.40;46.46
48553;BME280;34335;51.566;6.994;2023-04-06T12:01:44;100960.56;;;14.69;48.17
48553;BME280;34335;51.566;6.994;2023-04-06T12:04:10;100970.38;;;14.48;53.17
48553;BME280;34335;51.566;6.994;2023-04-06T12:06:35;100969.09;;;14.82;51.68
48553;BME280;34335;51.566;6.994;2023-04-06T12:09:00;100973.41;;;14.86;47.29
48553;BME280;34335;51.566;6.994;2023-04-06T12:11:26;100968.00;;;13.47;47.51
48553;BME280;34335;51.566;6.994;2023-04-06T12:13:51;100973.41;;;13.22;46.65
48553;BME280;34335;51.566;6.994;2023-04-06T12:16:16;100977.97;;;12.86;48.01
48553;BME280;34335;51.566;6.994;2023-04-06T12:18:44;100981.38;;;13.02;46.52
48553;BME280;34335;51.566;6.994;2023-04-06T12:21:09;100974.50;;;12.88;47.03
48553;BME280;34335;51.566;6.994;2023-04-06T12:23:34;100967.47;;;13.01;49.40
48553;BME280;34335;51.566;6.994;2023-04-06T12:26:00;100968.13;;;13.25;48.55
48553;BME280;34335;51.566;6.994;2023-04-06T12:28:26;100975.59;;;12.41;49.19
48553;BME280;34335;51.566;6.994;2023-04-06T12:30:52;100969.28;;;12.85;48.37
48553;BME280;34335;51.566;6.994;2023-04-06T12:33:17;100969.19;;;13.01;50.22
48553;BME280;34335;51.566;6.994;2023-04-06T12:35:42;100978.16;;;12.53;49.92
48553;BME280;34335;51.566;6.994;2023-04-06T12:38:08;100970.25;;;12.70;51.27
48553;BME280;34335;51.566;6.994;2023-04-06T12:40:37;100980.78;;;12.52;51.48
48553;BME280;34335;51.566;6.994;2023-04-06T12:43:03;100974.66;;;12.56;53.61
48553;BME280;34335;51.566;6.994;2023-04-06T12:45:30;100980.72;;;12.69;53.14
48553;BME280;34335;51.566;6.994;2023-04-06T12:47:55;100983.50;;;12.22;53.23
48553;BME280;34335;51.566;6.994;2023-04-06T12:50:21;100974.88;;;11.98;52.82